createdAt,value
2022-08-10T00:00:43.063Z,59.41
2022-08-10T00:02:41.486Z,59.36
2022-08-10T00:04:39.663Z,59.78
2022-08-10T00:06:37.958Z,60.02
2022-08-10T00:08:36.873Z,60.21
2022-08-10T00:10:35.219Z,59.73
2022-08-10T00:12:54.669Z,60.12
2022-08-10T00:14:53.374Z,60.47
2022-08-10T00:16:51.644Z,60.88
2022-08-10T00:18:49.742Z,60.73
2022-08-10T00:20:48.040Z,60.89
2022-08-10T00:22:52.959Z,61.00
2022-08-10T00:24:57.625Z,60.54
2022-08-10T00:28:00.983Z,60.97
2022-08-10T00:29:15.512Z,60.49
2022-08-10T00:31:14.001Z,60.86
2022-08-10T00:33:12.172Z,60.72
2022-08-10T00:35:10.919Z,61.03
2022-08-10T00:37:09.243Z,60.73
2022-08-10T00:39:10.799Z,60.75
2022-08-10T00:41:12.074Z,60.79
2022-08-10T00:43:10.426Z,60.54
2022-08-10T00:45:10.736Z,60.84
2022-08-10T00:47:21.289Z,61.35
2022-08-10T00:49:28.162Z,61.76
2022-08-10T00:51:40.434Z,61.82
2022-08-10T00:53:45.172Z,62.39
2022-08-10T00:57:09.128Z,63.23
2022-08-10T00:58:02.412Z,63.38
2022-08-10T01:00:00.931Z,63.00
2022-08-10T01:02:11.148Z,63.54
2022-08-10T01:04:40.249Z,63.14
2022-08-10T01:06:35.698Z,62.79
2022-08-10T01:08:41.704Z,63.28
2022-08-10T01:10:45.316Z,62.99
2022-08-10T01:12:55.175Z,63.40
2022-08-10T01:15:02.831Z,63.82
2022-08-10T01:17:07.850Z,63.98
2022-08-10T01:19:19.631Z,63.76
2022-08-10T01:21:54.093Z,63.73
2022-08-10T01:24:10.437Z,63.88
2022-08-10T01:26:37.364Z,64.41
2022-08-10T01:28:50.249Z,64.20
2022-08-10T01:30:54.980Z,63.72
2022-08-10T01:33:02.539Z,63.82
2022-08-10T01:35:07.757Z,63.54
2022-08-10T01:37:13.247Z,63.67
2022-08-10T01:39:15.783Z,63.78
2022-08-10T01:41:20.568Z,63.62
2022-08-10T01:43:21.362Z,64.24
2022-08-10T01:45:23.501Z,64.73
2022-08-10T01:47:54.205Z,65.07
2022-08-10T01:49:57.854Z,64.68
2022-08-10T01:52:00.549Z,63.96
2022-08-10T01:54:02.414Z,64.08
2022-08-10T01:56:02.378Z,63.98
2022-08-10T01:58:03.927Z,63.44
2022-08-10T02:00:03.754Z,63.47
2022-08-10T02:02:09.258Z,63.58
2022-08-10T02:04:11.846Z,63.62
2022-08-10T02:06:13.830Z,64.42
2022-08-10T02:08:16.280Z,64.83
2022-08-10T02:10:19.228Z,65.62
2022-08-10T02:12:20.889Z,65.04
2022-08-10T02:14:20.109Z,65.03
2022-08-10T02:16:20.504Z,64.84
2022-08-10T02:18:21.123Z,65.30
2022-08-10T02:20:24.206Z,64.67
2022-08-10T02:22:37.971Z,64.22
2022-08-10T02:24:40.210Z,64.08
2022-08-10T02:26:38.467Z,64.20
2022-08-10T02:28:39.857Z,64.15
2022-08-10T02:30:39.201Z,64.35
2022-08-10T02:32:40.063Z,64.42
2022-08-10T02:34:43.397Z,64.73
2022-08-10T02:36:48.625Z,65.41
2022-08-10T02:38:59.831Z,65.53
2022-08-10T02:45:12.913Z,66.05
2022-08-10T02:45:22.578Z,66.65
2022-08-10T02:45:53.784Z,66.45
2022-08-10T02:47:58.448Z,66.74
2022-08-10T02:50:11.072Z,67.00
2022-08-10T02:52:20.393Z,67.22
2022-08-10T02:54:23.668Z,67.15
2022-08-10T02:56:27.478Z,67.02
2022-08-10T02:58:31.660Z,67.01
2022-08-10T03:00:30.392Z,67.85
2022-08-10T03:02:34.412Z,67.58
2022-08-10T03:04:56.044Z,67.60
2022-08-10T03:07:01.313Z,68.06
2022-08-10T03:09:03.026Z,68.13
2022-08-10T03:11:05.116Z,68.61
2022-08-10T03:13:06.633Z,68.42
2022-08-10T03:15:06.832Z,68.99
2022-08-10T03:17:06.719Z,70.00
2022-08-10T03:19:07.656Z,70.22
2022-08-10T03:21:27.523Z,70.81
2022-08-10T03:23:26.504Z,71.20
2022-08-10T03:25:28.335Z,70.71
2022-08-10T03:27:27.078Z,70.71
2022-08-10T03:29:26.280Z,70.67
2022-08-10T03:31:25.374Z,70.05
2022-08-10T03:33:25.589Z,69.93
2022-08-10T03:35:24.319Z,70.29
2022-08-10T03:37:22.764Z,70.78
2022-08-10T03:39:20.995Z,71.06
2022-08-10T03:41:24.898Z,71.09
2022-08-10T03:43:24.929Z,70.88
2022-08-10T03:45:24.748Z,70.62
2022-08-10T03:47:24.912Z,69.83
2022-08-10T03:49:24.428Z,69.48
2022-08-10T03:51:24.514Z,69.02
2022-08-10T03:53:25.148Z,69.41
2022-08-10T03:56:29.590Z,68.65
2022-08-10T03:58:01.973Z,69.56
2022-08-10T04:00:00.291Z,69.83
2022-08-10T04:02:44.992Z,69.81
2022-08-10T04:04:22.944Z,68.78
2022-08-10T04:06:22.959Z,68.05
2022-08-10T04:08:21.670Z,68.35
2022-08-10T04:10:19.996Z,67.92
2022-08-10T04:12:18.625Z,67.98
2022-08-10T04:14:47.538Z,66.60
2022-08-10T04:16:36.435Z,66.63
2022-08-10T04:18:35.226Z,66.12
2022-08-10T04:20:39.495Z,65.23
2022-08-10T04:22:39.006Z,62.77
2022-08-10T04:24:39.177Z,61.95
2022-08-10T04:26:37.547Z,60.86
2022-08-10T04:28:36.577Z,59.91
2022-08-10T04:30:37.411Z,60.15
2022-08-10T04:34:38.855Z,59.84
2022-08-10T04:36:39.691Z,59.43
2022-08-10T04:38:39.149Z,60.24
2022-08-10T04:40:37.805Z,60.21
2022-08-10T04:42:36.301Z,60.06
2022-08-10T04:44:35.210Z,58.18
2022-08-10T04:46:55.986Z,57.80
2022-08-10T04:49:01.354Z,54.96
2022-08-10T04:51:00.416Z,53.47
2022-08-10T04:52:58.679Z,53.62
2022-08-10T04:54:56.957Z,53.38
2022-08-10T04:56:55.329Z,52.63
2022-08-10T04:58:53.560Z,52.83
2022-08-10T05:00:51.879Z,52.76
2022-08-10T05:02:52.222Z,52.66
2022-08-10T05:04:50.996Z,53.16
2022-08-10T05:06:49.321Z,52.65
2022-08-10T05:08:47.427Z,53.39
2022-08-10T05:10:45.806Z,53.78
2022-08-10T05:12:44.171Z,54.50
2022-08-10T05:14:42.525Z,55.96
2022-08-10T05:16:40.892Z,57.04
2022-08-10T05:18:40.569Z,57.18
2022-08-10T05:20:38.957Z,57.39
2022-08-10T05:22:38.507Z,57.18
2022-08-10T05:24:37.270Z,57.24
2022-08-10T05:26:40.476Z,57.43
2022-08-10T05:28:53.775Z,57.73
2022-08-10T05:30:52.385Z,57.20
2022-08-10T05:32:56.599Z,56.70
2022-08-10T05:34:59.028Z,56.71
2022-08-10T05:36:58.403Z,55.64
2022-08-10T05:38:57.763Z,55.21
2022-08-10T05:40:57.167Z,54.97
2022-08-10T05:42:55.391Z,55.70
2022-08-10T05:44:53.797Z,54.63
2022-08-10T05:46:52.696Z,54.94
2022-08-10T05:48:58.811Z,54.62
2022-08-10T05:51:00.581Z,54.61
2022-08-10T05:53:02.567Z,55.70
2022-08-10T05:55:18.061Z,54.64
2022-08-10T05:57:18.321Z,55.41
2022-08-10T06:00:34.658Z,55.64
2022-08-10T06:01:38.618Z,56.94
2022-08-10T06:03:41.219Z,56.33
2022-08-10T06:05:43.460Z,54.82
2022-08-10T06:07:49.504Z,55.83
2022-08-10T06:09:59.797Z,55.96
2022-08-10T06:12:27.436Z,54.19
2022-08-10T06:14:37.317Z,53.61
2022-08-10T06:16:36.479Z,53.31
2022-08-10T06:18:34.884Z,53.26
2022-08-10T06:20:36.055Z,53.05
2022-08-10T06:22:36.249Z,53.01
2022-08-10T06:25:04.676Z,53.33
2022-08-10T06:26:59.195Z,53.13
2022-08-10T06:29:04.241Z,52.10
2022-08-10T06:31:05.489Z,51.50
2022-08-10T06:33:04.683Z,51.74
2022-08-10T06:35:08.891Z,52.42
2022-08-10T06:37:09.305Z,52.11
2022-08-10T06:39:31.921Z,51.79
2022-08-10T06:42:14.820Z,52.54
2022-08-10T06:44:00.475Z,52.02
2022-08-10T06:46:07.470Z,52.53
2022-08-10T06:48:11.467Z,51.45
2022-08-10T06:50:17.491Z,51.89
2022-08-10T06:52:35.147Z,51.10
2022-08-10T06:54:34.631Z,50.90
2022-08-10T06:56:46.885Z,50.56
2022-08-10T06:58:57.581Z,49.52
2022-08-10T07:00:56.778Z,49.24
2022-08-10T07:02:58.401Z,48.38
2022-08-10T07:05:01.755Z,48.08
2022-08-10T07:07:03.781Z,48.09
2022-08-10T07:09:02.684Z,46.34
2022-08-10T07:11:03.152Z,47.83
2022-08-10T07:13:04.087Z,46.59
2022-08-10T07:15:03.511Z,46.16
2022-08-10T07:17:02.599Z,44.67
2022-08-10T07:19:02.780Z,42.16
2022-08-10T07:21:02.611Z,42.34
2022-08-10T07:23:57.344Z,43.12
2022-08-10T07:25:24.363Z,43.29
2022-08-10T07:27:24.979Z,44.79
2022-08-10T07:29:53.787Z,45.88
2022-08-10T07:31:56.861Z,45.85
2022-08-10T07:33:59.854Z,45.98
2022-08-10T07:35:59.562Z,46.04
2022-08-10T07:37:59.865Z,45.07
2022-08-10T07:40:05.303Z,45.44
2022-08-10T07:42:05.707Z,44.14
2022-08-10T07:44:05.993Z,41.85
2022-08-10T07:46:09.476Z,41.03
2022-08-10T07:48:11.017Z,40.26
2022-08-10T07:50:12.277Z,41.60
2022-08-10T07:52:12.010Z,42.70
2022-08-10T07:54:16.054Z,41.00
2022-08-10T07:56:32.274Z,41.05
2022-08-10T07:58:39.821Z,40.58
2022-08-10T08:00:45.575Z,40.25
2022-08-10T08:02:52.481Z,40.43
2022-08-10T08:04:52.637Z,42.06
2022-08-10T08:06:53.428Z,41.28
2022-08-10T08:08:52.688Z,39.09
2022-08-10T08:10:53.211Z,38.93
2022-08-10T08:12:53.797Z,39.06
2022-08-10T08:14:54.838Z,40.42
2022-08-10T08:16:58.859Z,40.85
2022-08-10T08:19:26.926Z,40.96
2022-08-10T08:24:04.584Z,41.09
2022-08-10T08:24:09.977Z,40.62
2022-08-10T08:26:00.025Z,41.25
2022-08-10T08:28:01.845Z,41.14
2022-08-10T08:30:01.366Z,40.60
2022-08-10T08:32:02.537Z,40.37
2022-08-10T08:34:04.550Z,39.51
2022-08-10T08:36:04.679Z,39.75
2022-08-10T08:38:33.561Z,38.48
2022-08-10T08:40:25.756Z,38.07
2022-08-10T08:42:49.648Z,38.10
2022-08-10T08:45:04.717Z,36.35
2022-08-10T08:48:05.010Z,36.96
2022-08-10T08:50:09.682Z,37.29
2022-08-10T08:52:20.252Z,35.58
2022-08-10T08:54:35.262Z,35.76
2022-08-10T08:56:48.197Z,34.22
2022-08-10T08:59:03.848Z,33.15
2022-08-10T09:01:13.559Z,32.97
2022-08-10T09:03:28.269Z,32.16
2022-08-10T09:05:58.448Z,32.42
2022-08-10T09:08:11.736Z,31.36
2022-08-10T09:10:20.591Z,31.71
2022-08-10T09:12:35.274Z,31.16
2022-08-10T09:14:42.210Z,30.29
2022-08-10T09:16:54.609Z,30.90
2022-08-10T09:19:00.599Z,33.17
2022-08-10T09:21:07.630Z,33.45
2022-08-10T09:23:15.464Z,34.10
2022-08-10T09:25:18.852Z,32.67
2022-08-10T09:27:22.156Z,31.57
2022-08-10T09:29:25.805Z,30.93
2022-08-10T09:31:26.114Z,28.72
2022-08-10T09:36:21.770Z,28.58
2022-08-10T09:36:25.996Z,25.35
2022-08-10T09:38:29.974Z,24.03
2022-08-10T09:41:00.723Z,23.56
2022-08-10T09:43:23.517Z,25.72
2022-08-10T09:45:22.760Z,26.04
2022-08-10T09:47:40.189Z,27.79
2022-08-10T09:50:14.070Z,27.67
2022-08-10T09:52:22.970Z,28.45
2022-08-10T09:54:44.587Z,29.44
2022-08-10T09:57:12.243Z,31.38
2022-08-10T09:59:56.624Z,30.61
2022-08-10T10:02:03.272Z,29.32
2022-08-10T10:04:11.645Z,28.62
2022-08-10T10:06:16.979Z,27.07
2022-08-10T10:08:21.674Z,26.03
2022-08-10T10:10:28.634Z,26.93
2022-08-10T10:12:37.272Z,27.52
2022-08-10T10:15:01.716Z,27.17
2022-08-10T10:17:07.282Z,27.19
2022-08-10T10:19:22.022Z,27.89
2022-08-10T10:21:53.929Z,27.09
2022-08-10T10:24:20.233Z,28.26
2022-08-10T10:26:28.133Z,31.13
2022-08-10T10:29:15.108Z,33.08
2022-08-10T10:31:16.323Z,34.71
2022-08-10T10:33:20.523Z,33.96
2022-08-10T10:35:24.631Z,31.70
2022-08-10T10:38:01.383Z,30.69
2022-08-10T10:39:46.033Z,30.28
2022-08-10T10:41:56.200Z,30.71
2022-08-10T10:44:20.447Z,30.65
2022-08-10T10:46:34.640Z,31.17
2022-08-10T10:48:41.474Z,30.61
2022-08-10T10:50:54.185Z,30.60
2022-08-10T10:53:04.380Z,30.98
2022-08-10T10:55:10.988Z,31.03
2022-08-10T10:57:20.683Z,31.44
2022-08-10T10:59:55.284Z,31.77
2022-08-10T11:02:02.362Z,32.51
2022-08-10T11:04:15.709Z,34.45
2022-08-10T11:06:39.144Z,35.58
2022-08-10T11:08:44.277Z,36.04
2022-08-10T11:10:52.742Z,36.36
2022-08-10T11:14:23.150Z,36.81
2022-08-10T11:15:30.344Z,36.48
2022-08-10T11:17:33.657Z,37.02
2022-08-10T11:20:02.816Z,37.27
2022-08-10T11:22:15.923Z,37.08
2022-08-10T11:24:47.943Z,37.42
2022-08-10T11:26:59.918Z,36.98
2022-08-10T11:29:08.909Z,36.16
2022-08-10T11:31:15.071Z,35.77
2022-08-10T11:33:31.086Z,35.85
2022-08-10T11:35:39.955Z,36.22
2022-08-10T11:38:28.373Z,37.63
2022-08-10T11:40:14.714Z,38.67
2022-08-10T11:42:31.581Z,37.92
2022-08-10T11:44:41.899Z,38.17
2022-08-10T11:46:44.001Z,38.19
2022-08-10T11:48:53.149Z,38.63
2022-08-10T11:50:59.118Z,39.08
2022-08-10T11:53:06.535Z,39.83
2022-08-10T11:55:13.311Z,41.02
2022-08-10T11:57:16.146Z,40.78
2022-08-10T11:59:36.100Z,41.50
2022-08-10T12:01:37.370Z,41.13
2022-08-10T12:03:39.710Z,41.52
2022-08-10T12:05:51.849Z,42.33
2022-08-10T12:10:04.169Z,42.66
2022-08-10T12:10:16.919Z,42.92
2022-08-10T12:12:17.014Z,42.69
2022-08-10T12:14:22.960Z,42.55
2022-08-10T12:16:24.966Z,42.96
2022-08-10T12:18:30.741Z,43.12
2022-08-10T12:20:34.404Z,42.61
2022-08-10T12:22:36.124Z,42.16
2022-08-10T12:24:41.731Z,41.98
2022-08-10T12:26:49.967Z,42.77
2022-08-10T12:28:55.666Z,43.93
2022-08-10T12:30:59.943Z,44.83
2022-08-10T12:33:03.385Z,46.92
2022-08-10T12:35:17.236Z,47.04
2022-08-10T12:37:25.523Z,47.71
2022-08-10T12:39:26.814Z,47.57
2022-08-10T12:41:43.573Z,47.15
2022-08-10T12:44:07.033Z,47.78
2022-08-10T12:46:15.312Z,47.56
2022-08-10T12:48:31.499Z,47.28
2022-08-10T12:50:40.468Z,47.52
2022-08-10T12:52:58.076Z,46.92
2022-08-10T12:54:59.367Z,47.63
2022-08-10T12:57:01.315Z,47.14
2022-08-10T12:59:01.779Z,47.34
2022-08-10T13:01:16.023Z,48.44
2022-08-10T13:03:16.645Z,47.67
2022-08-10T13:06:02.550Z,47.74
2022-08-10T13:08:27.594Z,47.74
2022-08-10T13:10:26.117Z,47.77
2022-08-10T13:12:38.520Z,48.30
2022-08-10T13:14:41.181Z,47.69
2022-08-10T13:16:41.982Z,48.07
2022-08-10T13:18:43.462Z,47.56
2022-08-10T13:20:43.175Z,47.27
2022-08-10T13:22:42.972Z,47.41
2022-08-10T13:24:44.168Z,46.74
2022-08-10T13:27:09.068Z,46.84
2022-08-10T13:29:15.156Z,46.47
2022-08-10T13:31:16.391Z,46.74
2022-08-10T13:34:41.190Z,45.97
2022-08-10T13:35:38.802Z,45.92
2022-08-10T13:37:44.264Z,46.24
2022-08-10T13:39:59.857Z,45.84
2022-08-10T13:42:03.798Z,45.00
2022-08-10T13:44:02.672Z,44.72
2022-08-10T13:46:01.975Z,44.65
2022-08-10T13:48:11.216Z,44.71
2022-08-10T13:50:13.733Z,44.23
2022-08-10T13:52:13.770Z,43.87
2022-08-10T13:54:18.818Z,43.43
2022-08-10T13:56:17.811Z,43.36
2022-08-10T13:58:18.309Z,43.09
2022-08-10T14:00:34.359Z,43.03
2022-08-10T14:02:41.802Z,42.99
2022-08-10T14:04:46.480Z,43.53
2022-08-10T14:06:52.287Z,43.58
2022-08-10T14:08:54.693Z,43.39
2022-08-10T14:11:09.903Z,44.18
2022-08-10T14:13:13.142Z,44.02
2022-08-10T14:15:17.002Z,44.25
2022-08-10T14:17:20.333Z,44.37
2022-08-10T14:19:22.694Z,44.81
2022-08-10T14:21:22.790Z,44.80
2022-08-10T14:23:21.805Z,45.51
2022-08-10T14:25:20.990Z,46.09
2022-08-10T14:27:24.427Z,45.39
2022-08-10T14:29:46.652Z,45.46
2022-08-10T14:32:00.979Z,45.87
2022-08-10T14:34:02.359Z,45.79
2022-08-10T14:36:19.685Z,46.09
2022-08-10T14:38:23.935Z,45.88
2022-08-10T14:40:25.612Z,46.81
2022-08-10T14:42:32.060Z,47.74
2022-08-10T14:44:45.081Z,48.03
2022-08-10T14:46:46.494Z,48.80
2022-08-10T14:48:55.662Z,50.38
2022-08-10T14:50:57.942Z,51.81
2022-08-10T14:52:58.058Z,52.63
2022-08-10T14:54:58.213Z,53.19
2022-08-10T14:57:11.057Z,54.52
2022-08-10T14:59:14.700Z,56.82
2022-08-10T15:01:19.418Z,59.71
2022-08-10T15:04:02.515Z,62.16
2022-08-10T15:05:41.683Z,62.77
2022-08-10T15:07:42.043Z,63.63
2022-08-10T15:10:00.808Z,64.23
2022-08-10T15:12:13.311Z,64.13
2022-08-10T15:14:42.829Z,65.21
2022-08-10T15:16:37.575Z,65.24
2022-08-10T15:18:42.062Z,64.67
2022-08-10T15:20:59.823Z,64.35
2022-08-10T15:23:04.624Z,65.52
2022-08-10T15:25:19.531Z,64.84
2022-08-10T15:27:24.631Z,64.82
2022-08-10T15:29:25.734Z,64.96
2022-08-10T15:31:25.970Z,65.27
2022-08-10T15:34:02.307Z,65.45
2022-08-10T15:36:22.697Z,65.91
2022-08-10T15:38:31.361Z,66.33
2022-08-10T15:40:45.926Z,66.05
2022-08-10T15:42:58.293Z,65.82
2022-08-10T15:44:58.392Z,65.70
2022-08-10T15:47:26.655Z,66.30
2022-08-10T15:49:28.576Z,66.78
2022-08-10T15:51:54.092Z,65.21
2022-08-10T15:53:55.717Z,64.75
2022-08-10T15:56:08.794Z,65.14
2022-08-10T15:58:14.918Z,64.70
2022-08-10T16:00:20.160Z,64.22
2022-08-10T16:02:25.298Z,64.55
2022-08-10T16:04:31.828Z,64.54
2022-08-10T16:06:36.328Z,64.94
2022-08-10T16:08:56.753Z,64.76
2022-08-10T16:11:04.263Z,65.04
2022-08-10T16:13:50.932Z,65.27
2022-08-10T16:15:28.830Z,65.38
2022-08-10T16:17:28.298Z,65.30
2022-08-10T16:19:28.902Z,65.22
2022-08-10T16:21:29.732Z,64.80
2022-08-10T16:23:31.247Z,65.80
2022-08-10T16:25:49.806Z,65.71
2022-08-10T16:27:49.420Z,66.29
2022-08-10T16:29:55.695Z,66.11
2022-08-10T16:31:58.234Z,66.53
2022-08-10T16:33:59.975Z,66.92
2022-08-10T16:36:01.839Z,66.87
2022-08-10T16:38:00.957Z,66.62
2022-08-10T16:40:01.766Z,66.36
2022-08-10T16:42:09.219Z,66.39
2022-08-10T16:44:11.621Z,66.04
2022-08-10T16:46:12.918Z,66.07
2022-08-10T16:48:15.077Z,65.93
2022-08-10T16:50:36.618Z,65.73
2022-08-10T16:52:36.395Z,65.81
2022-08-10T16:54:36.828Z,64.89
2022-08-10T16:56:48.519Z,64.76
2022-08-10T16:58:55.243Z,64.74
2022-08-10T17:00:54.775Z,65.05
2022-08-10T17:02:57.096Z,65.02
2022-08-10T17:04:58.866Z,65.54
2022-08-10T17:06:59.151Z,65.58
2022-08-10T17:09:00.807Z,65.22
2022-08-10T17:11:00.334Z,65.17
2022-08-10T17:12:59.924Z,65.20
2022-08-10T17:15:09.761Z,65.40
2022-08-10T17:17:20.971Z,65.18
2022-08-10T17:19:26.671Z,65.31
2022-08-10T17:21:30.555Z,65.38
2022-08-10T17:23:32.606Z,65.12
2022-08-10T17:25:48.409Z,64.96
2022-08-10T17:28:04.277Z,64.52
2022-08-10T17:30:15.686Z,64.99
2022-08-10T17:32:25.316Z,64.77
2022-08-10T17:34:30.050Z,65.08
2022-08-10T17:36:38.042Z,65.14
2022-08-10T17:38:38.807Z,64.46
2022-08-10T17:40:48.604Z,64.49
2022-08-10T17:42:50.762Z,64.36
2022-08-10T17:44:52.118Z,65.89
2022-08-10T17:46:51.552Z,65.61
2022-08-10T17:48:52.542Z,65.97
2022-08-10T17:50:53.062Z,66.08
2022-08-10T17:52:59.374Z,66.19
2022-08-10T17:55:01.184Z,65.73
2022-08-10T17:57:02.046Z,65.01
2022-08-10T17:59:05.279Z,64.97
2022-08-10T18:01:38.214Z,65.38
2022-08-10T18:03:41.990Z,65.57
2022-08-10T18:05:40.491Z,64.67
2022-08-10T18:07:41.998Z,64.16
2022-08-10T18:09:46.783Z,63.94
2022-08-10T18:11:49.293Z,63.46
2022-08-10T18:13:55.993Z,63.74
2022-08-10T18:15:56.939Z,63.40
2022-08-10T18:17:59.609Z,63.56
2022-08-10T18:20:02.232Z,63.52
2022-08-10T18:22:01.626Z,63.27
2022-08-10T18:24:02.395Z,63.28
2022-08-10T18:26:06.587Z,63.45
2022-08-10T18:28:09.121Z,63.73
2022-08-10T18:30:09.748Z,63.81
2022-08-10T18:32:09.659Z,63.92
2022-08-10T18:34:11.989Z,64.26
2022-08-10T18:36:13.193Z,64.37
2022-08-10T18:38:13.126Z,64.04
2022-08-10T18:40:12.385Z,64.44
2022-08-10T18:42:16.817Z,64.35
2022-08-10T18:44:18.169Z,64.20
2022-08-10T18:46:21.066Z,64.47
2022-08-10T18:48:22.933Z,64.44
2022-08-10T18:50:28.221Z,64.49
2022-08-10T18:52:31.134Z,64.46
2022-08-10T18:54:44.764Z,64.65
2022-08-10T18:56:57.810Z,64.31
2022-08-10T18:59:15.247Z,64.06
2022-08-10T19:01:24.961Z,63.79
2022-08-10T19:03:53.703Z,63.44
2022-08-10T19:06:10.885Z,63.54
2022-08-10T19:08:50.970Z,63.91
2022-08-10T19:11:00.932Z,64.16
2022-08-10T19:13:05.634Z,64.06
2022-08-10T19:15:17.308Z,64.43
2022-08-10T19:17:24.945Z,64.43
2022-08-10T19:19:38.720Z,64.14
2022-08-10T19:21:44.303Z,64.56
2022-08-10T19:23:58.258Z,64.35
2022-08-10T19:26:42.217Z,64.55
2022-08-10T19:28:36.083Z,64.49
2022-08-10T19:30:41.933Z,64.60
2022-08-10T19:33:04.056Z,64.27
2022-08-10T19:35:24.024Z,64.16
2022-08-10T19:37:32.347Z,64.74
2022-08-10T19:39:51.188Z,65.18
2022-08-10T19:41:55.599Z,66.34
2022-08-10T19:44:02.251Z,66.28
2022-08-10T19:46:13.902Z,67.11
2022-08-10T19:48:31.226Z,67.07
2022-08-10T19:50:34.213Z,68.28
2022-08-10T19:52:46.587Z,68.37
2022-08-10T19:54:57.126Z,67.96
2022-08-10T19:57:04.652Z,67.66
2022-08-10T19:59:10.381Z,67.86
2022-08-10T20:01:10.233Z,67.92
2022-08-10T20:03:18.138Z,67.80
2022-08-10T20:05:26.331Z,67.68
2022-08-10T20:07:35.601Z,68.28
2022-08-10T20:09:45.729Z,68.47
2022-08-10T20:11:58.325Z,68.55
2022-08-10T20:14:22.378Z,68.01
2022-08-10T20:16:26.334Z,68.00
2022-08-10T20:18:30.358Z,67.73
2022-08-10T20:20:31.801Z,66.95
2022-08-10T20:22:37.063Z,66.85
2022-08-10T20:24:40.614Z,66.68
2022-08-10T20:26:47.168Z,66.83
2022-08-10T20:28:55.578Z,66.84
2022-08-10T20:31:00.125Z,66.37
2022-08-10T20:33:07.229Z,66.84
2022-08-10T20:35:09.394Z,66.81
2022-08-10T20:37:11.064Z,66.69
2022-08-10T20:39:41.504Z,66.26
2022-08-10T20:41:58.038Z,65.78
2022-08-10T20:44:10.157Z,65.73
2022-08-10T20:46:18.066Z,66.10
2022-08-10T20:48:24.488Z,66.13
2022-08-10T20:50:30.860Z,65.98
2022-08-10T20:52:31.140Z,65.92
2022-08-10T20:54:34.291Z,66.24
2022-08-10T20:56:42.998Z,66.33
2022-08-10T20:59:10.137Z,66.20
2022-08-10T21:01:16.934Z,66.57
2022-08-10T21:03:58.513Z,65.99
2022-08-10T21:06:11.988Z,65.60
2022-08-10T21:08:18.505Z,65.82
2022-08-10T21:10:35.989Z,65.76
2022-08-10T21:12:55.567Z,66.64
2022-08-10T21:15:01.419Z,66.65
2022-08-10T21:17:14.991Z,67.64
2022-08-10T21:19:37.259Z,67.43
2022-08-10T21:21:56.862Z,67.63
2022-08-10T21:24:02.887Z,68.00
2022-08-10T21:26:08.048Z,67.47
2022-08-10T21:28:41.146Z,67.99
2022-08-10T21:31:14.777Z,68.10
2022-08-10T21:33:29.624Z,68.82
2022-08-10T21:35:37.788Z,69.57
2022-08-10T21:37:56.522Z,69.84
2022-08-10T21:40:35.187Z,70.44
2022-08-10T21:43:02.643Z,70.76
2022-08-10T21:45:58.692Z,70.87
2022-08-10T21:48:29.944Z,70.59
2022-08-10T21:50:52.908Z,69.92
2022-08-10T21:53:19.989Z,68.83
2022-08-10T21:55:57.486Z,69.02
2022-08-10T21:58:22.122Z,68.82
2022-08-10T22:00:44.174Z,69.10
2022-08-10T22:03:03.009Z,69.36
2022-08-10T22:05:22.237Z,69.10
2022-08-10T22:07:39.457Z,69.42
2022-08-10T22:10:02.992Z,69.15
2022-08-10T22:12:24.896Z,69.26
2022-08-10T22:14:51.873Z,68.68
2022-08-10T22:19:51.114Z,69.38
2022-08-10T22:22:27.397Z,69.70
2022-08-10T22:24:58.941Z,69.76
2022-08-10T22:27:46.392Z,69.68
2022-08-10T22:30:06.758Z,70.07
2022-08-10T22:31:25.965Z,68.96
2022-08-10T22:32:33.049Z,70.49
2022-08-10T22:35:04.064Z,70.33
2022-08-10T22:37:37.317Z,70.12
2022-08-10T22:40:14.340Z,70.38
2022-08-10T22:42:58.411Z,69.98
2022-08-10T22:45:21.885Z,69.98
2022-08-10T22:47:40.342Z,70.36
2022-08-10T22:49:37.905Z,70.21
2022-08-10T22:51:59.015Z,70.29
2022-08-10T22:54:30.578Z,70.91
2022-08-10T22:56:47.292Z,71.10
2022-08-10T22:58:55.107Z,71.24
2022-08-10T23:01:36.340Z,71.57
2022-08-10T23:03:43.673Z,72.22
2022-08-10T23:05:48.494Z,72.74
2022-08-10T23:07:57.974Z,72.61
2022-08-10T23:10:02.664Z,73.28
2022-08-10T23:12:04.305Z,73.48
2022-08-10T23:14:07.409Z,72.72
2022-08-10T23:16:28.553Z,72.55
2022-08-10T23:18:50.943Z,74.51
2022-08-10T23:20:51.834Z,74.91
2022-08-10T23:22:53.495Z,75.71
2022-08-10T23:24:56.313Z,75.21
2022-08-10T23:26:55.866Z,74.61
2022-08-10T23:28:59.877Z,74.40
2022-08-10T23:31:57.588Z,74.52
2022-08-10T23:33:38.513Z,74.04
2022-08-10T23:36:08.761Z,74.77
2022-08-10T23:38:06.099Z,74.79
2022-08-10T23:40:11.209Z,74.41
2022-08-10T23:42:11.895Z,73.95
2022-08-10T23:44:12.240Z,74.38
2022-08-10T23:46:15.311Z,74.33
2022-08-10T23:48:19.273Z,74.51
2022-08-10T23:50:20.050Z,74.67
2022-08-10T23:52:21.964Z,74.69
2022-08-10T23:54:22.356Z,74.77
2022-08-10T23:56:23.169Z,75.24
2022-08-10T23:58:31.702Z,74.69
